Time;durP1;ratioP1;P1;durP2;ratioP2;P2;SDS_P1;SDS_P2;PMS_P1;PMS_P2;Temp;Humidity;BMP_temperature;BMP_pressure;BME280_temperature;BME280_humidity;BME280_pressure;Samples;Min_cycle;Max_cycle;Signal;HPM_P1;HPM_P2
2022/08/28 00:00:19;;;;;;;;;8.50;7.50;;;;;22.09;42.29;101313.59;4975349;28;45269;-60
2022/08/28 00:02:45;;;;;;;;;6.00;6.00;;;;;22.07;42.74;101316.50;4976133;28;45987;-65
2022/08/28 00:05:11;;;;;;;;;8.75;8.00;;;;;22.05;42.58;101315.88;4976113;28;45408;-60
2022/08/28 00:07:37;;;;;;;;;9.25;8.75;;;;;22.02;43.01;101315.47;4976371;28;45439;-60
2022/08/28 00:10:04;;;;;;;;;8.50;8.50;;;;;21.99;43.04;101311.28;4976539;28;45378;-59
2022/08/28 00:12:30;;;;;;;;;9.25;7.50;;;;;21.95;43.35;101323.56;4976173;28;47058;-61
2022/08/28 00:14:55;;;;;;;;;10.75;10.00;;;;;21.93;43.27;101312.13;4976048;28;45311;-61
2022/08/28 00:17:21;;;;;;;;;8.50;8.00;;;;;21.92;43.37;101313.16;4976406;28;45242;-64
2022/08/28 00:19:46;;;;;;;;;11.00;8.00;;;;;21.88;43.19;101315.47;4976248;28;45289;-62
2022/08/28 00:22:12;;;;;;;;;9.75;7.50;;;;;21.88;43.27;101310.03;4974812;28;47072;-60
2022/08/28 00:24:37;;;;;;;;;11.50;8.50;;;;;21.77;43.58;101296.28;4977270;28;45371;-64
2022/08/28 00:29:47;;;;;;;;;8.75;7.75;;;;;21.81;43.68;101308.34;4976189;28;45377;-65
2022/08/28 00:32:12;;;;;;;;;7.00;7.00;;;;;21.77;43.60;101309.81;4975852;28;45379;-61
2022/08/28 00:34:38;;;;;;;;;8.75;8.50;;;;;21.75;43.64;101310.03;4975788;28;45474;-64
2022/08/28 00:37:03;;;;;;;;;10.75;8.25;;;;;21.69;44.01;101313.53;4975651;28;45334;-62
2022/08/28 00:39:29;;;;;;;;;10.25;8.75;;;;;21.67;43.83;101312.94;4974751;27;45342;-64
2022/08/28 00:41:56;;;;;;;;;9.00;7.75;;;;;21.62;43.89;101310.84;4975638;28;45904;-64
2022/08/28 00:44:23;;;;;;;;;9.00;7.25;;;;;21.52;43.97;101296.03;4975667;28;45343;-63
2022/08/28 00:46:50;;;;;;;;;8.50;8.50;;;;;21.59;44.28;101318.53;4975873;28;45375;-65
2022/08/28 00:49:20;;;;;;;;;10.00;10.00;;;;;21.48;44.31;101303.72;4975765;28;45399;-64
2022/08/28 00:52:04;;;;;;;;;7.75;7.75;;;;;21.57;44.32;101324.13;4975619;28;45429;-63
2022/08/28 00:54:33;;;;;;;;;9.25;9.25;;;;;21.50;43.96;101315.19;4975557;28;45391;-64
2022/08/28 00:57:01;;;;;;;;;7.75;7.00;;;;;21.47;43.76;101321.00;4975591;28;45276;-64
2022/08/28 00:59:26;;;;;;;;;10.00;8.50;;;;;21.40;44.42;101318.28;4975553;28;45643;-62
2022/08/28 01:01:55;;;;;;;;;7.25;6.50;;;;;21.39;44.42;101324.72;4975640;28;46128;-64
2022/08/28 01:04:23;;;;;;;;;10.25;9.00;;;;;21.39;44.71;101326.59;4975190;28;45448;-65
2022/08/28 01:06:53;;;;;;;;;11.50;8.00;;;;;21.37;44.57;101320.56;4975590;28;45331;-62
2022/08/28 01:09:20;;;;;;;;;7.75;5.25;;;;;21.29;44.75;101318.84;4974408;28;45474;-64
2022/08/28 01:11:48;;;;;;;;;11.50;7.50;;;;;21.26;45.11;101323.81;4975093;28;46052;-65
2022/08/28 01:14:17;;;;;;;;;11.00;8.75;;;;;21.22;44.73;101317.16;4975529;28;45449;-64
2022/08/28 01:16:44;;;;;;;;;8.00;6.75;;;;;21.18;45.15;101322.97;4975592;28;45374;-64
2022/08/28 01:19:19;;;;;;;;;5.75;5.50;;;;;21.16;45.38;101319.63;4975386;28;45312;-63
2022/08/28 01:22:11;;;;;;;;;7.00;7.00;;;;;21.13;45.44;101319.19;4976459;28;46717;-64
2022/08/28 01:24:38;;;;;;;;;8.50;6.50;;;;;21.15;45.87;101322.53;4974838;28;45334;-61
2022/08/28 01:27:04;;;;;;;;;8.00;7.00;;;;;21.06;45.84;101319.16;4975447;28;45499;-64
2022/08/28 01:29:30;;;;;;;;;6.50;6.50;;;;;21.11;46.25;101316.72;4975360;28;45377;-65
2022/08/28 01:31:56;;;;;;;;;5.00;5.00;;;;;21.09;46.38;101315.22;4976380;28;46157;-62
2022/08/28 01:34:22;;;;;;;;;6.50;6.00;;;;;21.08;46.15;101313.56;4976195;28;45427;-64
2022/08/28 01:36:47;;;;;;;;;5.75;5.50;;;;;21.05;46.21;101306.69;4975559;28;45254;-63
2022/08/28 01:39:23;;;;;;;;;7.00;7.00;;;;;21.02;46.28;101304.38;4975684;28;45295;-65
2022/08/28 01:41:51;;;;;;;;;8.00;6.25;;;;;21.02;45.86;101301.66;4974822;28;45988;-63
2022/08/28 01:44:22;;;;;;;;;7.25;5.50;;;;;21.00;46.06;101306.47;4974715;28;45463;-65
2022/08/28 01:46:48;;;;;;;;;6.75;6.75;;;;;20.88;46.65;101291.84;4975028;28;45287;-67
2022/08/28 01:49:13;;;;;;;;;7.50;6.00;;;;;20.94;46.49;101296.44;4973346;28;45240;-62
2022/08/28 01:51:40;;;;;;;;;6.50;6.50;;;;;20.86;46.41;101283.09;4974863;28;45510;-61
2022/08/28 01:54:06;;;;;;;;;7.75;7.00;;;;;20.91;46.69;101296.84;4974750;28;45361;-61
2022/08/28 01:56:32;;;;;;;;;6.25;5.25;;;;;20.86;47.00;101292.06;4976781;28;45337;-61
2022/08/28 01:59:01;;;;;;;;;7.75;6.00;;;;;20.85;46.80;101289.53;4974900;28;45386;-60
2022/08/28 02:01:26;;;;;;;;;7.25;7.00;;;;;20.82;46.66;101288.09;4974692;28;46094;-61
2022/08/28 02:03:51;;;;;;;;;9.25;6.25;;;;;20.77;46.59;101293.22;4974674;28;45276;-60
2022/08/28 02:06:17;;;;;;;;;9.50;7.00;;;;;20.78;46.76;101294.09;4974860;28;45523;-64
2022/08/28 02:08:44;;;;;;;;;7.75;7.25;;;;;20.75;46.84;101302.59;4974869;28;45265;-62
2022/08/28 02:11:09;;;;;;;;;5.00;5.00;;;;;20.74;47.78;101300.94;4974284;28;46698;-63
2022/08/28 02:13:35;;;;;;;;;5.75;5.50;;;;;20.73;47.74;101293.84;4973119;28;45417;-63
2022/08/28 02:16:02;;;;;;;;;6.00;6.00;;;;;20.72;47.34;101309.22;4974535;28;45406;-63
2022/08/28 02:18:28;;;;;;;;;7.25;7.00;;;;;20.71;47.43;101304.03;4974613;28;45401;-59
2022/08/28 02:20:53;;;;;;;;;4.00;4.00;;;;;20.67;47.69;101299.00;4974129;28;45434;-60
2022/08/28 02:23:19;;;;;;;;;6.00;6.00;;;;;20.57;47.60;101279.63;4974268;28;45331;-64
2022/08/28 02:25:44;;;;;;;;;7.50;6.75;;;;;20.65;48.07;101306.50;4975869;28;45635;-60
2022/08/28 02:28:09;;;;;;;;;8.00;6.00;;;;;20.63;47.85;101303.16;4974494;28;45328;-60
2022/08/28 02:30:35;;;;;;;;;6.25;6.00;;;;;20.63;48.07;101310.44;4974359;28;45309;-59
2022/08/28 02:33:01;;;;;;;;;6.67;6.00;;;;;20.60;48.10;101305.41;4974118;28;45477;-60
2022/08/28 02:35:26;;;;;;;;;8.50;5.50;;;;;20.60;48.57;101308.94;4974136;28;45366;-62
2022/08/28 02:37:52;;;;;;;;;7.00;5.50;;;;;20.56;48.55;101305.00;4974023;28;45373;-61
2022/08/28 02:40:20;;;;;;;;;6.50;5.75;;;;;20.55;48.50;101303.31;4973657;28;45465;-59
2022/08/28 02:42:46;;;;;;;;;6.50;5.00;;;;;20.52;48.40;101298.31;4973981;28;45228;-59
2022/08/28 02:45:13;;;;;;;;;7.00;7.00;;;;;20.52;48.18;101302.88;4973923;28;45320;-59
2022/08/28 02:47:41;;;;;;;;;6.00;6.00;;;;;20.49;48.50;101304.13;4974114;28;45348;-63
2022/08/28 02:50:08;;;;;;;;;4.75;3.50;;;;;20.48;48.41;101306.97;4973727;28;45360;-61
2022/08/28 02:52:35;;;;;;;;;6.25;5.75;;;;;20.46;48.63;101300.94;4973597;28;45290;-59
2022/08/28 02:55:00;;;;;;;;;6.00;5.00;;;;;20.45;48.44;101300.09;4973951;28;45348;-60
2022/08/28 02:57:26;;;;;;;;;8.50;8.00;;;;;20.41;48.57;101296.97;4974023;28;45330;-61
2022/08/28 02:59:51;;;;;;;;;6.00;6.00;;;;;20.37;49.16;101295.69;4973679;28;45388;-60
2022/08/28 03:02:17;;;;;;;;;7.50;6.00;;;;;20.35;49.05;101292.34;4975387;28;45165;-59
2022/08/28 03:04:43;;;;;;;;;8.25;6.25;;;;;20.36;48.92;101298.59;4976613;28;45406;-60
2022/08/28 03:07:12;;;;;;;;;5.50;5.50;;;;;20.32;49.40;101294.63;4977074;28;45357;-63
2022/08/28 03:09:40;;;;;;;;;9.67;8.00;;;;;20.27;49.12;101288.94;4976603;28;47037;-61
2022/08/28 03:12:06;;;;;;;;;6.75;5.25;;;;;20.31;49.71;101290.22;4976637;28;45330;-60
2022/08/28 03:14:32;;;;;;;;;5.50;5.50;;;;;20.28;49.76;101293.34;4978881;28;45417;-61
2022/08/28 03:16:57;;;;;;;;;5.00;5.00;;;;;20.26;49.68;101293.50;4977031;28;45320;-58
2022/08/28 03:19:23;;;;;;;;;9.00;7.50;;;;;20.26;49.47;101287.28;4975317;28;46227;-62
2022/08/28 03:21:48;;;;;;;;;8.67;7.67;;;;;20.23;49.77;101293.09;4976480;28;45412;-64
2022/08/28 03:24:14;;;;;;;;;8.25;4.75;;;;;20.09;49.87;101276.78;4976728;28;45279;-59
2022/08/28 03:26:39;;;;;;;;;6.00;6.00;;;;;20.15;49.65;101285.97;4977298;28;45442;-59
2022/08/28 03:29:04;;;;;;;;;7.75;5.75;;;;;20.15;49.93;101294.91;4977346;28;45332;-59
2022/08/28 03:31:32;;;;;;;;;7.00;6.00;;;;;20.12;50.24;101292.59;4976591;28;45349;-64
2022/08/28 03:33:58;;;;;;;;;6.00;5.25;;;;;20.03;50.40;101282.97;4976713;28;45303;-60
2022/08/28 03:36:26;;;;;;;;;6.50;6.50;;;;;20.11;49.62;101300.91;4976591;28;45247;-60
2022/08/28 03:38:53;;;;;;;;;7.25;5.00;;;;;20.04;50.14;101290.03;4976358;28;47308;-63
2022/08/28 03:41:21;;;;;;;;;9.00;7.00;;;;;20.07;50.62;101294.22;4977255;28;45533;-59
2022/08/28 03:43:47;;;;;;;;;10.33;9.00;;;;;19.94;50.27;101278.75;4976480;28;45441;-60
2022/08/28 03:46:16;;;;;;;;;8.25;6.75;;;;;20.02;50.27;101297.50;4976748;28;45453;-60
2022/08/28 03:48:42;;;;;;;;;9.00;6.00;;;;;19.94;50.13;101286.84;4976009;28;45311;-63
2022/08/28 03:51:10;;;;;;;;;6.75;5.00;;;;;19.93;50.30;101288.72;4976181;28;45544;-59
2022/08/28 03:53:36;;;;;;;;;6.00;6.00;;;;;19.91;51.06;101296.16;4976484;28;45325;-59
2022/08/28 03:56:09;;;;;;;;;6.33;6.33;;;;;19.85;50.71;101279.91;4976240;28;45425;-59
2022/08/28 03:58:35;;;;;;;;;7.00;5.25;;;;;19.88;51.12;101284.91;4975917;28;47370;-58
2022/08/28 04:01:01;;;;;;;;;6.00;6.00;;;;;19.76;51.34;101273.78;4976224;28;45352;-59
2022/08/28 04:03:27;;;;;;;;;8.00;7.00;;;;;19.86;51.36;101293.22;4976127;28;45654;-60
2022/08/28 04:05:52;;;;;;;;;6.25;5.25;;;;;19.84;51.06;101299.81;4976139;28;45419;-60
2022/08/28 04:08:19;;;;;;;;;6.67;6.00;;;;;19.81;51.52;101292.13;4975992;28;45997;-58
2022/08/28 04:10:46;;;;;;;;;7.00;7.00;;;;;19.72;51.36;101283.34;4975885;28;45475;-61
2022/08/28 04:13:13;;;;;;;;;9.00;6.00;;;;;19.81;51.31;101292.13;4976055;28;45396;-61
2022/08/28 04:15:40;;;;;;;;;6.00;6.00;;;;;19.74;51.52;101293.94;4976153;28;45269;-59
2022/08/28 04:18:06;;;;;;;;;7.00;7.00;;;;;19.76;51.52;101294.56;4975833;28;46797;-61
2022/08/28 04:20:32;;;;;;;;;8.00;6.00;;;;;19.73;51.21;101293.09;4975629;28;45290;-60
2022/08/28 04:22:57;;;;;;;;;8.00;6.00;;;;;19.69;51.44;101291.81;4976021;28;45292;-61
2022/08/28 04:25:23;;;;;;;;;9.67;6.67;;;;;19.72;51.90;101304.06;4976159;28;45298;-59
2022/08/28 04:27:50;;;;;;;;;6.00;6.00;;;;;19.69;51.94;101302.63;4975654;28;46078;-61
2022/08/28 04:30:15;;;;;;;;;9.33;7.00;;;;;19.69;51.58;101297.22;4975771;28;45217;-62
2022/08/28 04:32:41;;;;;;;;;6.00;6.00;;;;;19.67;51.95;101304.66;4975804;28;45314;-61
2022/08/28 04:35:09;;;;;;;;;8.33;6.00;;;;;19.65;51.87;101302.16;4976018;28;45275;-58
2022/08/28 04:37:35;;;;;;;;;6.00;6.00;;;;;19.61;52.42;101297.34;4975443;28;45495;-63
2022/08/28 04:40:01;;;;;;;;;7.33;7.33;;;;;19.56;52.47;101300.59;4975505;28;45406;-61
2022/08/28 04:42:26;;;;;;;;;6.33;5.67;;;;;19.51;52.21;101299.47;4975809;28;45496;-62
2022/08/28 04:44:58;;;;;;;;;8.00;6.00;;;;;19.47;52.57;101301.75;4975870;28;45395;-62
2022/08/28 04:47:24;;;;;;;;;10.00;7.00;;;;;19.51;52.83;101308.44;4975439;28;45914;-59
2022/08/28 04:49:49;;;;;;;;;5.33;4.33;;;;;19.49;52.56;101318.56;4975434;28;45447;-62
2022/08/28 04:52:15;;;;;;;;;5.33;5.33;;;;;19.38;52.55;101302.88;4975601;28;45343;-60
2022/08/28 04:54:40;;;;;;;;;8.67;7.67;;;;;19.44;52.96;101318.31;4974398;28;45415;-62
2022/08/28 04:57:06;;;;;;;;;9.00;8.67;;;;;19.41;52.38;101315.97;4975402;28;46230;-63
2022/08/28 04:59:32;;;;;;;;;8.67;7.67;;;;;19.31;52.64;101307.38;4975390;28;45347;-62
2022/08/28 05:01:57;;;;;;;;;8.00;7.33;;;;;19.28;52.89;101307.75;4975628;28;45271;-63
2022/08/28 05:04:22;;;;;;;;;10.00;7.00;;;;;19.33;52.67;101324.19;4975635;28;45453;-61
2022/08/28 05:06:48;;;;;;;;;8.67;7.00;;;;;19.35;52.92;101327.56;4975185;28;45355;-60
2022/08/28 05:09:17;;;;;;;;;5.00;4.00;;;;;19.36;53.33;101330.03;4975263;28;45254;-59
2022/08/28 05:11:43;;;;;;;;;5.33;5.33;;;;;19.36;53.22;101335.44;4975431;28;45263;-62
2022/08/28 05:14:09;;;;;;;;;11.67;7.67;;;;;19.30;53.43;101320.03;4975375;28;45333;-59
2022/08/28 05:16:51;;;;;;;;;8.33;7.00;;;;;19.34;53.33;101331.25;4975189;28;45319;-60
2022/08/28 05:19:18;;;;;;;;;8.67;7.67;;;;;19.35;53.57;101333.78;4974981;28;45398;-60
2022/08/28 05:21:43;;;;;;;;;6.33;5.00;;;;;19.31;53.63;101320.88;4975302;28;45342;-60
2022/08/28 05:24:10;;;;;;;;;4.00;4.00;;;;;19.31;53.86;101326.25;4974802;28;45490;-61
2022/08/28 05:26:36;;;;;;;;;8.33;8.00;;;;;19.34;53.46;101342.03;4975411;28;46288;-59
2022/08/28 05:29:03;;;;;;;;;9.00;7.00;;;;;19.32;54.17;101338.72;4975049;28;45456;-60
2022/08/28 05:31:30;;;;;;;;;7.00;7.00;;;;;19.29;53.87;101339.91;4975090;28;45350;-61
2022/08/28 05:33:58;;;;;;;;;10.67;6.00;;;;;19.33;53.69;101349.31;4957836;28;45459;-60
2022/08/28 05:36:24;;;;;;;;;7.00;7.00;;;;;19.35;53.68;101355.34;4974718;28;45609;-59
2022/08/28 05:38:53;;;;;;;;;9.00;8.00;;;;;19.35;54.18;101354.53;4974565;28;45403;-60
2022/08/28 05:41:21;;;;;;;;;8.67;7.00;;;;;19.35;53.60;101351.81;4974738;28;45330;-60
2022/08/28 05:43:48;;;;;;;;;4.33;2.67;;;;;19.37;54.14;101353.28;4975167;28;45298;-62
2022/08/28 05:46:15;;;;;;;;;10.00;7.67;;;;;19.37;53.40;101349.75;4974753;28;46144;-59
2022/08/28 05:48:41;;;;;;;;;6.00;6.00;;;;;19.38;53.96;101349.59;4975063;28;45499;-65
2022/08/28 05:51:09;;;;;;;;;5.00;5.00;;;;;19.43;54.34;101351.72;4974944;28;45306;-60
2022/08/28 05:53:41;;;;;;;;;9.33;6.00;;;;;19.45;54.13;101357.75;4975068;28;45463;-61
2022/08/28 05:56:09;;;;;;;;;6.67;6.67;;;;;19.48;53.78;101354.69;4974824;28;46278;-64
2022/08/28 05:58:36;;;;;;;;;5.67;3.33;;;;;19.50;54.02;101359.88;4974536;28;45426;-62
2022/08/28 06:01:07;;;;;;;;;8.00;7.00;;;;;19.50;53.93;101360.69;4974587;28;45463;-59
2022/08/28 06:03:34;;;;;;;;;9.00;5.33;;;;;19.53;54.14;101359.50;4974854;28;45375;-65
2022/08/28 06:06:01;;;;;;;;;6.33;6.33;;;;;19.53;54.19;101362.19;4974354;28;46986;-65
2022/08/28 06:08:28;;;;;;;;;6.00;6.00;;;;;19.54;53.45;101359.28;4974266;28;45402;-65
2022/08/28 06:10:54;;;;;;;;;8.67;5.67;;;;;19.55;53.19;101352.91;4974477;28;45451;-59
2022/08/28 06:13:20;;;;;;;;;7.67;6.67;;;;;19.56;53.66;101354.56;4974593;28;45392;-58
2022/08/28 06:15:47;;;;;;;;;7.33;6.00;;;;;19.54;52.54;101353.91;4974172;28;46491;-59
2022/08/28 06:18:14;;;;;;;;;7.33;7.00;;;;;19.60;53.99;101355.03;4974277;28;45442;-64
2022/08/28 06:20:41;;;;;;;;;5.00;4.33;;;;;19.61;53.68;101360.25;4974290;28;45282;-59
2022/08/28 06:23:08;;;;;;;;;7.00;7.00;;;;;19.65;53.96;101369.63;4974749;28;45328;-61
2022/08/28 06:25:45;;;;;;;;;7.00;5.67;;;;;19.66;53.70;101367.78;4974144;28;46280;-60
2022/08/28 06:28:12;;;;;;;;;6.33;5.67;;;;;19.72;54.24;101366.16;4974076;28;45403;-64
2022/08/28 06:30:38;;;;;;;;;5.00;5.00;;;;;19.73;53.50;101366.00;4976424;28;45470;-62
2022/08/28 06:33:05;;;;;;;;;9.33;8.67;;;;;19.75;53.85;101363.09;4974494;28;45239;-59
2022/08/28 06:35:33;;;;;;;;;7.00;7.00;;;;;19.78;53.68;101368.94;4974109;28;46676;-63
2022/08/28 06:37:59;;;;;;;;;8.33;7.00;;;;;19.80;54.26;101368.75;4976508;28;45237;-65
2022/08/28 06:40:24;;;;;;;;;9.00;7.67;;;;;19.85;54.14;101372.56;4977751;28;45272;-59
2022/08/28 06:42:50;;;;;;;;;5.00;3.67;;;;;19.89;53.47;101365.75;4977783;28;45461;-61
2022/08/28 06:45:16;;;;;;;;;6.33;5.00;;;;;19.91;53.73;101374.47;4977499;28;45324;-63
2022/08/28 06:47:41;;;;;;;;;7.33;7.00;;;;;19.93;53.48;101368.88;4977632;28;45451;-65
2022/08/28 06:50:07;;;;;;;;;9.00;7.00;;;;;19.98;54.06;101369.16;4977612;28;45351;-65
2022/08/28 06:52:33;;;;;;;;;6.00;6.00;;;;;20.04;53.46;101375.63;4978202;28;45399;-58
2022/08/28 06:54:58;;;;;;;;;8.00;6.33;;;;;20.11;53.31;101379.22;4978702;28;46125;-65
2022/08/28 06:57:24;;;;;;;;;4.33;3.67;;;;;20.15;53.07;101378.66;4978434;28;45343;-59
2022/08/28 06:59:54;;;;;;;;;4.67;4.67;;;;;20.17;53.21;101364.94;4979542;28;45422;-60
2022/08/28 07:02:20;;;;;;;;;7.00;7.00;;;;;20.31;52.82;101369.44;4977796;28;45414;-61
2022/08/28 07:04:49;;;;;;;;;3.75;3.50;;;;;20.40;52.41;101381.78;4977738;28;45343;-58
2022/08/28 07:07:15;;;;;;;;;7.33;7.00;;;;;20.44;52.30;101364.13;4977120;28;45491;-63
2022/08/28 07:09:41;;;;;;;;;8.00;6.25;;;;;20.68;52.48;101368.25;4977341;28;45171;-64
2022/08/28 07:12:07;;;;;;;;;8.00;8.00;;;;;21.50;51.09;101369.34;4977325;28;45416;-64
2022/08/28 07:14:33;;;;;;;;;6.25;6.25;;;;;22.35;48.88;101373.22;4977562;28;47030;-63
2022/08/28 07:16:58;;;;;;;;;9.50;8.50;;;;;22.77;47.89;101368.38;4977510;28;45575;-61
2022/08/28 07:19:24;;;;;;;;;8.25;7.50;;;;;23.37;46.84;101374.47;4978891;28;45442;-61
2022/08/28 07:21:49;;;;;;;;;6.00;6.00;;;;;23.87;45.53;101377.34;4977227;28;45386;-64
2022/08/28 07:24:15;;;;;;;;;7.50;7.25;;;;;23.89;45.46;101366.25;4977033;28;45314;-62
2022/08/28 07:26:42;;;;;;;;;7.00;6.00;;;;;24.01;45.38;101380.78;4976776;28;45335;-63
2022/08/28 07:29:08;;;;;;;;;7.25;7.00;;;;;24.11;45.08;101373.00;4977663;28;45314;-66
2022/08/28 07:31:34;;;;;;;;;6.75;6.75;;;;;24.37;44.71;101379.28;4977847;28;45755;-60
2022/08/28 07:33:59;;;;;;;;;6.00;5.75;;;;;24.84;43.99;101380.50;4976886;28;46211;-66
2022/08/28 07:36:26;;;;;;;;;8.75;8.75;;;;;25.75;42.32;101378.78;4977001;28;45436;-64
2022/08/28 07:38:54;;;;;;;;;7.40;7.40;;;;;26.85;40.64;101380.97;4976549;28;45377;-66
2022/08/28 07:41:22;;;;;;;;;6.25;6.25;;;;;27.70;38.63;101375.88;4977008;28;45479;-66
2022/08/28 07:46:33;;;;;;;;;8.00;6.60;;;;;29.05;36.28;101376.69;4976466;28;45269;-65
2022/08/28 07:48:59;;;;;;;;;7.25;6.50;;;;;29.42;35.27;101376.88;4976240;28;45253;-66
2022/08/28 07:51:25;;;;;;;;;5.75;5.75;;;;;29.89;34.16;101376.28;4976948;28;45182;-63
2022/08/28 07:53:52;;;;;;;;;6.60;5.80;;;;;30.30;33.74;101368.41;4978053;28;46430;-62
2022/08/28 07:56:18;;;;;;;;;6.20;6.20;;;;;30.75;32.40;101373.38;4977051;28;45337;-64
2022/08/28 07:58:44;;;;;;;;;7.50;5.00;;;;;31.03;32.96;101377.66;4976831;28;45430;-64
2022/08/28 08:01:10;;;;;;;;;6.80;5.40;;;;;31.18;32.58;101381.53;4975230;28;45305;-56
2022/08/28 08:03:36;;;;;;;;;7.60;5.40;;;;;31.58;31.78;101380.06;4976026;28;46257;-54
2022/08/28 08:06:03;;;;;;;;;4.75;4.75;;;;;32.07;30.74;101379.56;4976077;28;45315;-54
2022/08/28 08:08:33;;;;;;;;;6.20;4.80;;;;;32.52;30.59;101375.97;4975899;28;45476;-57
2022/08/28 08:11:10;;;;;;;;;4.00;4.00;;;;;32.57;30.64;101372.41;4976376;28;45228;-56
2022/08/28 08:13:38;;;;;;;;;7.40;5.60;;;;;32.52;30.57;101376.81;4975665;28;47055;-51
2022/08/28 08:16:10;;;;;;;;;4.60;4.20;;;;;32.38;30.73;101378.50;4976077;28;45331;-55
2022/08/28 08:18:36;;;;;;;;;6.80;4.80;;;;;32.37;30.00;101382.31;4976000;28;45359;-51
2022/08/28 08:21:04;;;;;;;;;7.80;5.60;;;;;32.58;30.50;101376.81;4990524;28;45516;-56
2022/08/28 08:23:30;;;;;;;;;6.60;5.40;;;;;32.78;29.60;101376.75;5003198;28;45639;-50
2022/08/28 08:25:59;;;;;;;;;6.75;6.25;;;;;33.00;29.44;101380.03;4975540;28;45394;-59
2022/08/28 08:28:26;;;;;;;;;6.20;5.40;;;;;33.19;29.41;101373.88;4975685;28;45338;-50
2022/08/28 08:31:28;;;;;;;;;7.20;5.60;;;;;33.50;29.98;101389.19;4975995;28;45349;-56
2022/08/28 08:34:00;;;;;;;;;8.00;6.40;;;;;33.78;29.07;101381.25;5015495;28;46050;-57
2022/08/28 08:36:27;;;;;;;;;6.40;6.40;;;;;34.18;28.42;101382.09;5016128;28;45433;-56
2022/08/28 08:38:53;;;;;;;;;10.20;9.80;;;;;34.57;28.16;101386.69;5015471;28;45475;-53
2022/08/28 08:41:21;;;;;;;;;8.00;6.00;;;;;34.99;27.19;101384.03;5016157;28;45373;-58
2022/08/28 08:43:56;;;;;;;;;9.80;7.80;;;;;35.42;26.89;101386.78;5015268;28;45942;-55
2022/08/28 08:46:31;;;;;;;;;13.00;9.20;;;;;36.14;27.12;101383.75;5015556;28;45508;-56
2022/08/28 08:49:04;;;;;;;;;6.60;6.60;;;;;37.63;24.36;101384.41;5015579;28;45360;-54
2022/08/28 08:51:46;;;;;;;;;6.00;5.60;;;;;39.87;22.12;101386.50;5015842;28;45422;-54
2022/08/28 08:54:16;;;;;;;;;6.00;5.60;;;;;41.55;20.17;101387.94;5015196;28;46327;-51
2022/08/28 08:56:43;;;;;;;;;4.60;4.60;;;;;42.78;18.99;101368.72;5015371;28;45436;-57
2022/08/28 08:59:22;;;;;;;;;5.80;5.80;;;;;43.68;17.93;101378.66;5014708;28;45412;-56
2022/08/28 09:02:03;;;;;;;;;4.80;4.80;;;;;44.46;17.11;101380.03;4999353;28;45404;-58
2022/08/28 09:04:51;;;;;;;;;8.40;7.40;;;;;45.24;16.50;101383.06;5015030;28;46277;-59
2022/08/28 09:07:33;;;;;;;;;9.60;5.20;;;;;46.03;15.96;101379.91;5010987;28;45537;-57
2022/08/28 09:09:59;;;;;;;;;6.60;5.40;;;;;46.91;15.16;101370.53;4985243;28;45583;-56
2022/08/28 09:12:28;;;;;;;;;9.00;7.25;;;;;47.43;14.59;101371.66;4975567;28;45188;-60
2022/08/28 09:15:08;;;;;;;;;6.40;6.40;;;;;47.69;15.30;101370.78;4999415;28;46152;-57
2022/08/28 09:17:36;;;;;;;;;7.80;6.80;;;;;48.07;14.42;101378.03;5077363;27;45628;-56
2022/08/28 09:20:08;;;;;;;;;5.80;5.80;;;;;48.40;14.64;101376.34;5077709;27;45406;-58
2022/08/28 09:22:40;;;;;;;;;8.60;7.00;;;;;48.67;13.52;101368.47;5077630;27;45532;-59
2022/08/28 09:25:09;;;;;;;;;5.40;5.40;;;;;48.86;13.78;101370.25;5077603;27;46271;-59
2022/08/28 09:27:42;;;;;;;;;5.60;5.60;;;;;49.34;13.13;101367.25;5077356;28;45404;-54
2022/08/28 09:30:09;;;;;;;;;7.40;7.00;;;;;49.27;13.99;101370.06;5005491;27;45299;-54
2022/08/28 09:32:43;;;;;;;;;6.40;6.40;;;;;49.56;13.18;101373.81;5077670;27;45413;-54
2022/08/28 09:35:27;;;;;;;;;5.20;5.20;;;;;50.13;13.36;101371.91;5077334;27;46089;-50
2022/08/28 09:37:52;;;;;;;;;5.40;5.40;;;;;50.33;12.30;101374.38;5077044;27;45446;-53
2022/08/28 09:40:24;;;;;;;;;6.00;6.00;;;;;50.49;12.37;101366.28;5077115;27;45509;-54
2022/08/28 09:43:26;;;;;;;;;7.00;6.00;;;;;50.53;12.64;101367.13;5077493;27;45459;-56
2022/08/28 09:46:19;;;;;;;;;8.60;8.00;;;;;50.64;12.71;101364.25;5076603;27;45404;-53
2022/08/28 09:48:47;;;;;;;;;7.40;7.20;;;;;50.73;12.38;101353.31;5077198;28;45437;-57
2022/08/28 09:51:27;;;;;;;;;6.60;6.20;;;;;51.04;11.99;101351.63;5010745;27;45437;-54
2022/08/28 09:54:01;;;;;;;;;6.40;6.40;;;;;51.48;11.60;101355.06;4974507;28;45430;-58
2022/08/28 09:56:28;;;;;;;;;6.40;6.40;;;;;51.61;11.28;101353.41;4974028;28;45612;-48
2022/08/28 09:58:58;;;;;;;;;6.00;5.80;;;;;51.84;11.88;101358.53;4974256;28;45485;-58
2022/08/28 10:01:39;;;;;;;;;8.80;6.20;;;;;51.98;11.59;101349.91;4974537;28;45364;-54
2022/08/28 10:04:23;;;;;;;;;8.80;5.60;;;;;52.28;10.94;101351.31;4974914;28;45537;-56
2022/08/28 10:06:53;;;;;;;;;8.20;6.00;;;;;52.48;11.40;101360.03;4974103;28;46275;-51
2022/08/28 10:09:51;;;;;;;;;7.40;6.80;;;;;52.05;10.80;101355.56;4974010;28;45260;-55
2022/08/28 10:12:31;;;;;;;;;9.60;8.20;;;;;51.97;11.74;101348.31;4917014;28;45425;-58
2022/08/28 10:15:27;;;;;;;;;8.60;8.60;;;;;51.79;11.52;101354.06;4917441;28;45414;-55
2022/08/28 10:18:14;;;;;;;;;9.40;7.80;;;;;51.43;11.57;101339.31;4924646;28;45401;-57
2022/08/28 10:21:04;;;;;;;;;10.00;8.60;;;;;51.23;11.46;101355.22;4916762;28;45328;-56
2022/08/28 10:23:51;;;;;;;;;6.20;5.80;;;;;51.20;11.27;101341.81;4916969;28;45441;-53
2022/08/28 10:26:43;;;;;;;;;9.00;6.80;;;;;51.60;12.40;101346.94;4917227;28;45268;-52
2022/08/28 10:29:14;;;;;;;;;9.80;8.20;;;;;51.62;11.94;101350.13;4916922;28;46200;-56
2022/08/28 10:32:17;;;;;;;;;6.20;3.60;;;;;50.88;11.87;101351.28;4916797;28;45400;-53
2022/08/28 10:34:53;;;;;;;;;8.20;8.00;;;;;50.71;11.35;101346.44;4916926;28;45493;-53
2022/08/28 10:37:27;;;;;;;;;4.80;4.80;;;;;49.47;12.41;101345.94;4916947;28;45452;-55
2022/08/28 10:39:58;;;;;;;;;6.20;6.20;;;;;49.90;12.20;101348.88;4916504;28;46349;-55
2022/08/28 10:42:42;;;;;;;;;4.60;4.60;;;;;50.26;12.29;101348.91;4916978;28;45455;-53
2022/08/28 10:45:22;;;;;;;;;4.20;4.20;;;;;50.65;12.46;101346.84;4917082;28;45382;-53
2022/08/28 10:47:53;;;;;;;;;4.40;4.40;;;;;51.21;11.30;101346.31;4923840;28;45383;-55
2022/08/28 10:50:40;;;;;;;;;5.00;5.00;;;;;50.64;12.12;101350.09;4976788;28;45457;-57
2022/08/28 10:53:12;;;;;;;;;6.80;5.00;;;;;50.57;12.08;101348.09;4976726;28;45311;-52
2022/08/28 10:55:51;;;;;;;;;7.40;7.20;;;;;50.37;12.01;101350.53;4977025;28;45545;-52
2022/08/28 10:58:16;;;;;;;;;8.20;6.00;;;;;50.65;12.70;101335.50;4977224;28;45549;-55
2022/08/28 11:00:43;;;;;;;;;10.75;7.25;;;;;51.17;11.73;101341.44;4976792;28;45372;-53
2022/08/28 11:03:13;;;;;;;;;6.60;6.60;;;;;51.40;11.43;101338.09;4977087;28;45386;-54
2022/08/28 11:06:03;;;;;;;;;7.80;7.80;;;;;49.28;12.71;101338.59;4978104;28;45493;-57
2022/08/28 11:08:31;;;;;;;;;5.60;5.60;;;;;47.08;13.94;101335.38;4977091;28;45408;-54
2022/08/28 11:10:59;;;;;;;;;9.20;7.80;;;;;44.88;15.54;101342.97;4976466;28;46099;-54
2022/08/28 11:13:53;;;;;;;;;8.00;6.20;;;;;42.93;16.51;101337.19;4976761;28;45574;-60
2022/08/28 11:16:28;;;;;;;;;11.40;6.80;;;;;40.85;18.59;101331.72;4976751;28;45516;-57
2022/08/28 11:19:14;;;;;;;;;5.20;3.80;;;;;41.78;18.27;101337.25;4976952;28;45494;-54
2022/08/28 11:21:54;;;;;;;;;7.80;5.80;;;;;43.89;16.73;101335.63;4976135;28;45381;-57
2022/08/28 11:24:29;;;;;;;;;10.80;6.60;;;;;45.46;15.55;101328.19;4976434;28;45264;-54
2022/08/28 11:27:22;;;;;;;;;6.60;6.60;;;;;46.30;14.56;101323.72;5034873;28;45346;-60
2022/08/28 11:30:28;;;;;;;;;7.80;6.00;;;;;46.58;14.20;101312.94;5079888;27;45342;-59
2022/08/28 11:32:58;;;;;;;;;7.00;7.00;;;;;46.45;14.18;101334.84;5070998;28;46255;-55
2022/08/28 11:35:29;;;;;;;;;6.20;5.60;;;;;46.88;14.50;101321.41;5079199;27;45353;-59
2022/08/28 11:37:57;;;;;;;;;4.20;4.20;;;;;47.38;14.49;101319.28;5079079;27;45483;-57
2022/08/28 11:40:31;;;;;;;;;6.00;5.60;;;;;47.60;13.38;101323.13;5079426;27;45449;-56